createdAt,value
2022-10-07T00:02:24.703Z,7.47
2022-10-07T00:05:32.815Z,7.41
2022-10-07T00:08:40.953Z,7.34
2022-10-07T00:11:49.583Z,7.22
2022-10-07T00:14:57.355Z,7.22
2022-10-07T00:18:05.968Z,7.16
2022-10-07T00:21:14.279Z,7.02
2022-10-07T00:24:21.959Z,7.05
2022-10-07T00:27:30.485Z,7.08
2022-10-07T00:30:38.855Z,7.08
2022-10-07T00:33:46.451Z,7.08
2022-10-07T00:36:54.929Z,7.08
2022-10-07T00:40:03.336Z,7.09
2022-10-07T00:43:11.015Z,7.17
2022-10-07T00:46:19.930Z,7.15
2022-10-07T00:49:28.120Z,7.07
2022-10-07T00:52:36.215Z,7.08
2022-10-07T00:55:44.799Z,7.12
2022-10-07T00:58:52.739Z,7.07
2022-10-07T01:02:01.097Z,7.01
2022-10-07T01:05:09.330Z,7.02
2022-10-07T01:08:17.189Z,7.04
2022-10-07T01:11:25.208Z,7.07
2022-10-07T01:14:33.332Z,7.20
2022-10-07T01:17:41.741Z,7.22
2022-10-07T01:20:49.660Z,7.26
2022-10-07T01:23:57.591Z,7.26
2022-10-07T01:27:05.352Z,7.20
2022-10-07T01:30:12.770Z,7.19
2022-10-07T01:33:21.211Z,7.20
2022-10-07T01:36:29.404Z,7.15
2022-10-07T01:39:36.938Z,7.07
2022-10-07T01:42:45.269Z,7.17
2022-10-07T01:45:53.208Z,7.17
2022-10-07T01:49:00.995Z,7.16
2022-10-07T01:52:09.096Z,7.13
2022-10-07T01:55:16.496Z,7.13
2022-10-07T01:58:25.250Z,7.12
2022-10-07T02:01:33.168Z,7.09
2022-10-07T02:04:40.928Z,7.01
2022-10-07T02:07:49.280Z,6.95
2022-10-07T02:10:56.990Z,6.99
2022-10-07T02:14:04.865Z,6.99
2022-10-07T02:17:12.852Z,6.94
2022-10-07T02:20:20.943Z,6.84
2022-10-07T02:23:28.812Z,6.79
2022-10-07T02:26:36.572Z,6.80
2022-10-07T02:29:44.764Z,6.89
2022-10-07T02:32:52.133Z,6.91
2022-10-07T02:36:00.441Z,6.91
2022-10-07T02:39:08.688Z,6.95
2022-10-07T02:42:16.075Z,6.94
2022-10-07T02:45:26.788Z,6.90
2022-10-07T02:48:34.510Z,6.90
2022-10-07T02:51:41.997Z,6.87
2022-10-07T02:54:50.079Z,6.90
2022-10-07T02:57:57.533Z,6.89
2022-10-07T03:01:05.620Z,6.76
2022-10-07T03:04:13.902Z,6.68
2022-10-07T03:07:21.352Z,6.72
2022-10-07T03:10:29.599Z,6.69
2022-10-07T03:13:37.494Z,6.61
2022-10-07T03:16:45.283Z,6.53
2022-10-07T03:19:53.122Z,6.46
2022-10-07T03:23:01.074Z,6.36
2022-10-07T03:26:09.412Z,6.40
2022-10-07T03:29:17.104Z,6.43
2022-10-07T03:32:24.784Z,6.48
2022-10-07T03:35:32.543Z,6.61
2022-10-07T03:38:39.947Z,6.59
2022-10-07T03:41:48.234Z,6.62
2022-10-07T03:44:56.127Z,6.61
2022-10-07T03:48:03.686Z,6.54
2022-10-07T03:51:11.809Z,6.58
2022-10-07T03:54:19.707Z,6.58
2022-10-07T03:57:27.147Z,6.58
2022-10-07T04:00:35.377Z,6.54
2022-10-07T04:03:43.303Z,6.50
2022-10-07T04:06:50.898Z,6.50
2022-10-07T04:09:59.050Z,6.50
2022-10-07T04:13:06.433Z,6.47
2022-10-07T04:16:14.711Z,6.47
2022-10-07T04:19:22.915Z,6.44
2022-10-07T04:22:30.295Z,6.50
2022-10-07T04:25:38.949Z,6.54
2022-10-07T04:28:47.035Z,6.51
2022-10-07T04:31:54.571Z,6.53
2022-10-07T04:35:02.758Z,6.50
2022-10-07T04:38:10.517Z,6.51
2022-10-07T04:41:18.327Z,6.51
2022-10-07T04:44:26.465Z,6.47
2022-10-07T04:47:34.106Z,6.44
2022-10-07T04:50:41.857Z,6.43
2022-10-07T04:53:53.081Z,6.36
2022-10-07T04:56:53.332Z,6.33
2022-10-07T05:00:00.936Z,6.29
2022-10-07T05:03:08.676Z,6.21
2022-10-07T05:06:16.795Z,6.18
2022-10-07T05:09:24.366Z,6.14
2022-10-07T05:12:32.099Z,6.11
2022-10-07T05:15:39.750Z,6.13
2022-10-07T05:18:47.458Z,6.11
2022-10-07T05:21:55.077Z,6.04
2022-10-07T05:25:02.491Z,5.95
2022-10-07T05:28:10.083Z,5.95
2022-10-07T05:31:18.189Z,5.98
2022-10-07T05:34:25.912Z,5.98
2022-10-07T05:37:33.113Z,6.00
2022-10-07T05:40:41.101Z,6.06
2022-10-07T05:43:48.625Z,6.06
2022-10-07T05:46:55.846Z,6.07
2022-10-07T05:50:03.843Z,6.03
2022-10-07T05:53:11.322Z,5.98
2022-10-07T05:56:18.523Z,5.96
2022-10-07T05:59:26.466Z,5.96
2022-10-07T06:02:33.907Z,6.03
2022-10-07T06:05:41.954Z,6.07
2022-10-07T06:08:49.929Z,6.11
2022-10-07T06:11:57.136Z,6.19
2022-10-07T06:15:04.757Z,6.30
2022-10-07T06:18:12.677Z,6.41
2022-10-07T06:21:19.908Z,6.62
2022-10-07T06:24:27.960Z,6.84
2022-10-07T06:27:36.019Z,6.94
2022-10-07T06:30:44.044Z,7.02
2022-10-07T06:33:52.484Z,7.09
2022-10-07T06:37:00.420Z,7.20
2022-10-07T06:40:08.421Z,7.26
2022-10-07T06:43:16.691Z,7.34
2022-10-07T06:46:24.626Z,7.40
2022-10-07T06:49:32.532Z,7.49
2022-10-07T06:52:43.455Z,7.53
2022-10-07T06:55:41.193Z,7.63
2022-10-07T06:58:49.074Z,7.75
2022-10-07T07:01:56.896Z,7.81
2022-10-07T07:05:05.465Z,7.94
2022-10-07T07:08:13.423Z,8.02
2022-10-07T07:11:21.356Z,8.17
2022-10-07T07:14:29.825Z,8.32
2022-10-07T07:17:37.401Z,8.47
2022-10-07T07:20:45.794Z,8.60
2022-10-07T07:23:53.917Z,8.73
2022-10-07T07:27:01.430Z,8.86
2022-10-07T07:30:09.650Z,8.97
2022-10-07T07:33:17.440Z,9.12
2022-10-07T07:36:25.090Z,9.27
2022-10-07T07:39:33.511Z,9.40
2022-10-07T07:42:41.936Z,9.53
2022-10-07T07:45:49.554Z,9.63
2022-10-07T07:48:58.355Z,9.71
2022-10-07T07:52:06.074Z,9.85
2022-10-07T07:55:13.964Z,9.93
2022-10-07T07:58:22.111Z,10.03
2022-10-07T08:01:30.105Z,10.14
2022-10-07T08:04:37.896Z,10.26
2022-10-07T08:07:46.555Z,10.42
2022-10-07T08:10:54.658Z,10.51
2022-10-07T08:14:02.641Z,10.63
2022-10-07T08:17:10.898Z,10.81
2022-10-07T08:20:19.031Z,10.96
2022-10-07T08:23:27.068Z,11.10
2022-10-07T08:26:34.873Z,11.28
2022-10-07T08:29:43.133Z,11.43
2022-10-07T08:32:51.192Z,11.62
2022-10-07T08:35:59.197Z,11.74
2022-10-07T08:39:07.543Z,11.90
2022-10-07T08:42:15.039Z,12.02
2022-10-07T08:45:23.094Z,12.16
2022-10-07T08:48:31.027Z,12.29
2022-10-07T08:51:38.719Z,12.39
2022-10-07T08:54:47.148Z,12.56
2022-10-07T08:57:55.347Z,12.75
2022-10-07T09:01:02.987Z,12.88
2022-10-07T09:04:11.369Z,12.95
2022-10-07T09:07:19.737Z,13.06
2022-10-07T09:10:27.211Z,13.25
2022-10-07T09:13:35.691Z,13.41
2022-10-07T09:16:43.212Z,13.54
2022-10-07T09:19:51.403Z,13.63
2022-10-07T09:22:59.643Z,13.73
2022-10-07T09:26:07.590Z,13.88
2022-10-07T09:29:15.394Z,13.98
2022-10-07T09:32:23.838Z,14.10
2022-10-07T09:35:31.718Z,14.21
2022-10-07T09:38:39.619Z,14.29
2022-10-07T09:41:47.587Z,14.38
2022-10-07T09:44:55.409Z,14.47
2022-10-07T09:48:03.581Z,14.56
2022-10-07T09:51:11.558Z,14.72
2022-10-07T09:54:19.703Z,14.88
2022-10-07T09:57:27.935Z,15.09
2022-10-07T10:00:35.830Z,15.27
2022-10-07T10:03:43.954Z,15.41
2022-10-07T10:06:51.954Z,15.45
2022-10-07T10:10:00.193Z,15.46
2022-10-07T10:13:08.208Z,15.56
2022-10-07T10:16:16.314Z,15.57
2022-10-07T10:19:24.537Z,15.63
2022-10-07T10:22:32.499Z,15.70
2022-10-07T10:25:40.369Z,15.78
2022-10-07T10:28:48.800Z,15.76
2022-10-07T10:31:56.911Z,15.84
2022-10-07T10:35:04.820Z,15.97
2022-10-07T10:38:13.382Z,16.09
2022-10-07T10:41:20.951Z,16.11
2022-10-07T10:44:28.904Z,16.15
2022-10-07T10:47:37.176Z,16.22
2022-10-07T10:50:44.866Z,16.31
2022-10-07T10:53:53.205Z,16.41
2022-10-07T10:57:01.027Z,16.44
2022-10-07T11:00:09.011Z,16.49
2022-10-07T11:03:17.581Z,16.52
2022-10-07T11:06:25.512Z,16.63
2022-10-07T11:09:33.495Z,16.71
2022-10-07T11:12:41.633Z,16.77
2022-10-07T11:15:49.313Z,16.86
2022-10-07T11:18:57.137Z,16.88
2022-10-07T11:22:04.584Z,16.90
2022-10-07T11:25:12.474Z,16.95
2022-10-07T11:28:20.198Z,17.03
2022-10-07T11:31:27.752Z,17.08
2022-10-07T11:34:35.699Z,17.14
2022-10-07T11:37:43.352Z,17.15
2022-10-07T11:40:50.956Z,17.14
2022-10-07T11:43:58.611Z,17.18
2022-10-07T11:47:06.285Z,17.17
2022-10-07T11:50:14.054Z,17.22
2022-10-07T11:53:22.225Z,17.25
2022-10-07T11:56:29.495Z,17.29
2022-10-07T11:59:37.487Z,17.36
2022-10-07T12:02:45.785Z,17.36
2022-10-07T12:05:53.267Z,17.47
2022-10-07T12:09:01.349Z,17.62
2022-10-07T12:12:08.508Z,17.71
2022-10-07T12:15:16.712Z,17.71
2022-10-07T12:18:24.841Z,17.70
2022-10-07T12:21:32.104Z,17.67
2022-10-07T12:24:40.195Z,17.69
2022-10-07T12:27:47.876Z,17.63
2022-10-07T12:30:55.127Z,17.54
2022-10-07T12:34:03.010Z,17.36
2022-10-07T12:37:11.030Z,17.25
2022-10-07T12:40:18.319Z,17.32
2022-10-07T12:43:26.188Z,17.44
2022-10-07T12:46:33.721Z,17.48
2022-10-07T12:49:41.192Z,17.59
2022-10-07T12:52:49.289Z,17.55
2022-10-07T12:55:56.884Z,17.63
2022-10-07T12:59:04.525Z,17.76
2022-10-07T13:02:12.570Z,17.88
2022-10-07T13:05:20.166Z,17.99
2022-10-07T13:08:27.863Z,17.99
2022-10-07T13:11:36.108Z,17.87
2022-10-07T13:14:43.867Z,17.88
2022-10-07T13:17:51.640Z,17.74
2022-10-07T13:20:59.411Z,17.70
2022-10-07T13:24:07.518Z,17.70
2022-10-07T13:27:15.504Z,17.73
2022-10-07T13:30:23.206Z,17.57
2022-10-07T13:33:31.457Z,17.53
2022-10-07T13:36:39.316Z,17.48
2022-10-07T13:39:47.007Z,17.46
2022-10-07T13:42:54.827Z,17.38
2022-10-07T13:46:02.482Z,17.35
2022-10-07T13:49:10.652Z,17.30
2022-10-07T13:52:18.541Z,17.25
2022-10-07T13:55:26.345Z,17.20
2022-10-07T13:58:34.448Z,17.20
2022-10-07T14:01:42.279Z,17.20
2022-10-07T14:04:49.897Z,17.22
2022-10-07T14:07:57.937Z,17.28
2022-10-07T14:11:05.322Z,17.29
2022-10-07T14:14:13.516Z,17.36
2022-10-07T14:17:21.726Z,17.43
2022-10-07T14:20:29.087Z,17.46
2022-10-07T14:23:37.421Z,17.53
2022-10-07T14:26:45.362Z,17.59
2022-10-07T14:29:52.732Z,17.62
2022-10-07T14:33:00.865Z,17.57
2022-10-07T14:36:09.035Z,17.62
2022-10-07T14:39:16.305Z,17.66
2022-10-07T14:42:24.776Z,17.69
2022-10-07T14:45:32.729Z,17.69
2022-10-07T14:48:40.507Z,17.69
2022-10-07T14:51:48.731Z,17.70
2022-10-07T14:54:56.165Z,17.71
2022-10-07T14:58:03.913Z,17.70
2022-10-07T15:01:12.372Z,17.66
2022-10-07T15:04:20.389Z,17.57
2022-10-07T15:07:28.389Z,17.48
2022-10-07T15:10:36.186Z,17.41
2022-10-07T15:13:44.377Z,17.35
2022-10-07T15:16:52.266Z,17.30
2022-10-07T15:20:00.048Z,17.29
2022-10-07T15:23:07.857Z,17.28
2022-10-07T15:26:15.746Z,17.23
2022-10-07T15:29:23.373Z,17.14
2022-10-07T15:32:31.744Z,17.07
2022-10-07T15:35:39.026Z,16.98
2022-10-07T15:38:47.303Z,16.86
2022-10-07T15:41:55.294Z,16.73
2022-10-07T15:45:02.599Z,16.60
2022-10-07T15:48:10.734Z,16.45
2022-10-07T15:51:19.058Z,16.34
2022-10-07T15:54:26.430Z,16.18
2022-10-07T15:57:34.272Z,16.06
2022-10-07T16:00:41.600Z,15.93
2022-10-07T16:03:49.642Z,15.81
2022-10-07T16:06:57.799Z,15.70
2022-10-07T16:10:07.555Z,15.57
2022-10-07T16:13:08.037Z,15.54
2022-10-07T16:16:15.994Z,15.39
2022-10-07T16:19:23.837Z,15.11
2022-10-07T16:22:32.359Z,14.80
2022-10-07T16:25:40.498Z,14.47
2022-10-07T16:28:48.171Z,14.25
2022-10-07T16:31:58.886Z,14.04
2022-10-07T16:34:56.332Z,13.94
2022-10-07T16:38:04.162Z,13.65
2022-10-07T16:41:11.973Z,13.56
2022-10-07T16:44:19.673Z,13.36
2022-10-07T16:47:27.196Z,13.21
2022-10-07T16:50:34.525Z,13.07
2022-10-07T16:53:42.125Z,12.96
2022-10-07T16:56:49.923Z,12.81
2022-10-07T16:59:57.397Z,12.70
2022-10-07T17:03:05.618Z,12.62
2022-10-07T17:06:13.429Z,12.54
2022-10-07T17:09:21.169Z,12.45
2022-10-07T17:12:29.052Z,12.37
2022-10-07T17:15:36.457Z,12.30
2022-10-07T17:18:44.742Z,12.20
2022-10-07T17:21:53.208Z,12.16
2022-10-07T17:25:01.163Z,12.01
2022-10-07T17:28:09.217Z,11.96
2022-10-07T17:31:17.320Z,11.87
2022-10-07T17:34:25.096Z,11.72
2022-10-07T17:37:32.929Z,11.61
2022-10-07T17:40:40.811Z,11.54
2022-10-07T17:43:48.675Z,11.50
2022-10-07T17:46:56.866Z,11.53
2022-10-07T17:50:04.923Z,11.47
2022-10-07T17:53:12.710Z,11.38
2022-10-07T17:56:20.879Z,11.27
2022-10-07T17:59:28.853Z,11.20
2022-10-07T18:02:36.263Z,11.17
2022-10-07T18:05:44.056Z,11.17
2022-10-07T18:08:52.322Z,11.11
2022-10-07T18:11:59.814Z,11.07
2022-10-07T18:15:07.725Z,11.02
2022-10-07T18:18:15.838Z,10.99
2022-10-07T18:21:24.197Z,10.92
2022-10-07T18:24:32.139Z,10.83
2022-10-07T18:27:40.379Z,10.76
2022-10-07T18:30:47.937Z,10.66
2022-10-07T18:33:56.933Z,10.65
2022-10-07T18:37:05.182Z,10.59
2022-10-07T18:40:12.666Z,10.53
2022-10-07T18:43:21.061Z,10.55
2022-10-07T18:46:28.882Z,10.52
2022-10-07T18:49:36.499Z,10.44
2022-10-07T18:52:44.852Z,10.40
2022-10-07T18:55:52.524Z,10.36
2022-10-07T18:59:00.624Z,10.30
2022-10-07T19:02:08.775Z,10.25
2022-10-07T19:05:16.421Z,10.21
2022-10-07T19:08:24.407Z,10.17
2022-10-07T19:11:32.299Z,10.12
2022-10-07T19:14:40.258Z,10.09
2022-10-07T19:17:48.754Z,10.06
2022-10-07T19:20:56.967Z,10.12
2022-10-07T19:24:05.223Z,10.10
2022-10-07T19:27:13.160Z,10.01
2022-10-07T19:30:21.060Z,9.97
2022-10-07T19:33:29.338Z,9.93
2022-10-07T19:36:37.084Z,10.00
2022-10-07T19:39:44.789Z,9.97
2022-10-07T19:42:53.114Z,9.86
2022-10-07T19:46:00.538Z,9.79
2022-10-07T19:49:08.786Z,9.73
2022-10-07T19:52:16.426Z,9.75
2022-10-07T19:55:23.921Z,9.73
2022-10-07T19:58:32.024Z,9.67
2022-10-07T20:01:39.911Z,9.61
2022-10-07T20:04:47.290Z,9.57
2022-10-07T20:07:55.429Z,9.58
2022-10-07T20:11:02.780Z,9.61
2022-10-07T20:14:10.998Z,9.67
2022-10-07T20:17:19.033Z,9.73
2022-10-07T20:20:26.506Z,9.73
2022-10-07T20:23:34.624Z,9.75
2022-10-07T20:26:42.765Z,9.67
2022-10-07T20:29:50.165Z,9.66
2022-10-07T20:32:58.398Z,9.53
2022-10-07T20:36:05.945Z,9.50
2022-10-07T20:39:14.229Z,9.48
2022-10-07T20:42:21.993Z,9.43
2022-10-07T20:45:29.450Z,9.40
2022-10-07T20:48:39.370Z,9.35
2022-10-07T20:51:39.755Z,9.38
2022-10-07T20:54:47.146Z,9.40
2022-10-07T20:57:55.370Z,9.32
2022-10-07T21:01:03.351Z,9.28
2022-10-07T21:04:11.275Z,9.28
2022-10-07T21:07:19.353Z,9.18
2022-10-07T21:10:27.243Z,9.05
2022-10-07T21:13:34.965Z,9.04
2022-10-07T21:16:43.168Z,9.02
2022-10-07T21:19:50.896Z,9.04
2022-10-07T21:22:58.748Z,8.97
2022-10-07T21:26:06.530Z,8.91
2022-10-07T21:29:14.917Z,8.90
2022-10-07T21:32:22.903Z,8.79
2022-10-07T21:35:30.669Z,8.69
2022-10-07T21:38:38.805Z,8.66
2022-10-07T21:41:46.578Z,8.62
2022-10-07T21:44:54.471Z,8.63
2022-10-07T21:48:02.534Z,8.57
2022-10-07T21:51:10.063Z,8.55
2022-10-07T21:54:17.833Z,8.51
2022-10-07T21:57:26.223Z,8.45
2022-10-07T22:00:33.709Z,8.47
2022-10-07T22:03:41.876Z,8.45
2022-10-07T22:06:50.176Z,8.36
2022-10-07T22:09:57.636Z,8.29
2022-10-07T22:13:06.040Z,8.26
2022-10-07T22:16:13.820Z,8.22
2022-10-07T22:19:21.191Z,8.20
2022-10-07T22:22:29.219Z,8.20
2022-10-07T22:25:37.044Z,8.25
2022-10-07T22:28:44.810Z,8.22
2022-10-07T22:31:52.694Z,8.22
2022-10-07T22:35:00.340Z,8.33
2022-10-07T22:38:08.155Z,8.44
2022-10-07T22:41:16.456Z,8.54
2022-10-07T22:44:16.458Z,8.71
2022-10-07T22:47:24.312Z,8.78
2022-10-07T22:50:31.628Z,8.78
2022-10-07T22:53:39.726Z,8.83
2022-10-07T22:56:47.521Z,8.99
2022-10-07T22:59:55.292Z,9.15
2022-10-07T23:03:03.002Z,9.28
2022-10-07T23:06:11.192Z,9.45
2022-10-07T23:09:19.180Z,9.50
2022-10-07T23:12:26.997Z,9.56
2022-10-07T23:15:35.231Z,9.57
2022-10-07T23:18:43.188Z,9.60
2022-10-07T23:21:50.588Z,9.53
2022-10-07T23:24:58.300Z,9.43
2022-10-07T23:28:06.672Z,9.28
2022-10-07T23:31:14.589Z,9.15
2022-10-07T23:34:22.573Z,8.97
2022-10-07T23:37:30.822Z,8.78
2022-10-07T23:40:38.666Z,8.72
2022-10-07T23:43:46.448Z,8.60
2022-10-07T23:46:54.572Z,8.50
2022-10-07T23:50:02.029Z,8.32
2022-10-07T23:53:09.907Z,8.21
2022-10-07T23:56:18.039Z,8.14
2022-10-07T23:59:25.551Z,8.11
